sensor_id;sensor_type;location;lat;lon;timestamp;P1;durP1;ratioP1;P2;durP2;ratioP2
16115;SDS011;8162;47.104;15.432;2022-08-19T00:01:24;6.00;;;3.33;;
16115;SDS011;8162;47.104;15.432;2022-08-19T00:03:52;4.40;;;2.17;;
16115;SDS011;8162;47.104;15.432;2022-08-19T00:06:17;8.67;;;3.20;;
16115;SDS011;8162;47.104;15.432;2022-08-19T00:08:43;5.73;;;2.80;;
16115;SDS011;8162;47.104;15.432;2022-08-19T00:11:10;7.43;;;2.80;;
16115;SDS011;8162;47.104;15.432;2022-08-19T00:13:36;5.50;;;3.20;;
16115;SDS011;8162;47.104;15.432;2022-08-19T00:16:03;7.60;;;2.73;;
16115;SDS011;8162;47.104;15.432;2022-08-19T00:18:30;5.10;;;2.70;;
16115;SDS011;8162;47.104;15.432;2022-08-19T00:20:56;5.87;;;2.47;;
16115;SDS011;8162;47.104;15.432;2022-08-19T00:23:22;7.60;;;2.93;;
16115;SDS011;8162;47.104;15.432;2022-08-19T00:25:48;6.57;;;2.53;;
16115;SDS011;8162;47.104;15.432;2022-08-19T00:28:14;8.47;;;3.13;;
16115;SDS011;8162;47.104;15.432;2022-08-19T00:30:39;5.50;;;2.90;;
16115;SDS011;8162;47.104;15.432;2022-08-19T00:33:05;6.23;;;3.50;;
16115;SDS011;8162;47.104;15.432;2022-08-19T00:35:33;8.93;;;3.90;;
16115;SDS011;8162;47.104;15.432;2022-08-19T00:37:59;8.17;;;3.60;;
16115;SDS011;8162;47.104;15.432;2022-08-19T00:40:25;8.83;;;3.97;;
16115;SDS011;8162;47.104;15.432;2022-08-19T00:42:51;6.80;;;3.30;;
16115;SDS011;8162;47.104;15.432;2022-08-19T00:45:19;5.93;;;2.80;;
16115;SDS011;8162;47.104;15.432;2022-08-19T00:47:46;6.83;;;3.10;;
16115;SDS011;8162;47.104;15.432;2022-08-19T00:50:13;9.03;;;3.63;;
16115;SDS011;8162;47.104;15.432;2022-08-19T00:52:42;10.90;;;4.17;;
16115;SDS011;8162;47.104;15.432;2022-08-19T00:55:12;7.17;;;3.83;;
16115;SDS011;8162;47.104;15.432;2022-08-19T00:57:44;6.07;;;3.63;;
16115;SDS011;8162;47.104;15.432;2022-08-19T01:00:17;14.63;;;4.53;;
16115;SDS011;8162;47.104;15.432;2022-08-19T01:02:44;10.93;;;3.87;;
16115;SDS011;8162;47.104;15.432;2022-08-19T01:05:11;9.90;;;4.90;;
16115;SDS011;8162;47.104;15.432;2022-08-19T01:07:40;11.13;;;3.93;;
16115;SDS011;8162;47.104;15.432;2022-08-19T01:10:09;10.00;;;4.47;;
16115;SDS011;8162;47.104;15.432;2022-08-19T01:12:37;7.57;;;3.80;;
16115;SDS011;8162;47.104;15.432;2022-08-19T01:15:05;7.20;;;3.67;;
16115;SDS011;8162;47.104;15.432;2022-08-19T01:17:33;8.27;;;4.13;;
16115;SDS011;8162;47.104;15.432;2022-08-19T01:20:01;7.03;;;3.60;;
16115;SDS011;8162;47.104;15.432;2022-08-19T01:22:34;10.33;;;4.00;;
16115;SDS011;8162;47.104;15.432;2022-08-19T01:25:07;6.73;;;3.90;;
16115;SDS011;8162;47.104;15.432;2022-08-19T01:27:36;6.67;;;3.40;;
16115;SDS011;8162;47.104;15.432;2022-08-19T01:30:07;12.70;;;4.20;;
16115;SDS011;8162;47.104;15.432;2022-08-19T01:32:33;9.93;;;4.43;;
16115;SDS011;8162;47.104;15.432;2022-08-19T01:35:00;7.07;;;3.80;;
16115;SDS011;8162;47.104;15.432;2022-08-19T01:37:27;8.93;;;3.83;;
16115;SDS011;8162;47.104;15.432;2022-08-19T01:39:55;7.20;;;4.10;;
16115;SDS011;8162;47.104;15.432;2022-08-19T01:42:20;10.60;;;4.47;;
16115;SDS011;8162;47.104;15.432;2022-08-19T01:44:47;9.60;;;4.63;;
16115;SDS011;8162;47.104;15.432;2022-08-19T01:47:12;9.07;;;4.10;;
16115;SDS011;8162;47.104;15.432;2022-08-19T01:49:38;8.83;;;4.73;;
16115;SDS011;8162;47.104;15.432;2022-08-19T01:52:04;10.77;;;5.00;;
16115;SDS011;8162;47.104;15.432;2022-08-19T01:54:30;6.87;;;4.00;;
16115;SDS011;8162;47.104;15.432;2022-08-19T01:57:01;7.30;;;4.87;;
16115;SDS011;8162;47.104;15.432;2022-08-19T01:59:29;9.27;;;4.57;;
16115;SDS011;8162;47.104;15.432;2022-08-19T02:01:56;9.97;;;5.00;;
16115;SDS011;8162;47.104;15.432;2022-08-19T02:04:22;6.87;;;4.43;;
16115;SDS011;8162;47.104;15.432;2022-08-19T02:06:48;7.60;;;4.23;;
16115;SDS011;8162;47.104;15.432;2022-08-19T02:09:14;8.73;;;4.10;;
16115;SDS011;8162;47.104;15.432;2022-08-19T02:11:41;7.23;;;4.27;;
16115;SDS011;8162;47.104;15.432;2022-08-19T02:14:07;6.67;;;3.97;;
16115;SDS011;8162;47.104;15.432;2022-08-19T02:16:33;9.40;;;4.20;;
16115;SDS011;8162;47.104;15.432;2022-08-19T02:19:00;7.03;;;4.43;;
16115;SDS011;8162;47.104;15.432;2022-08-19T02:21:26;7.47;;;4.10;;
16115;SDS011;8162;47.104;15.432;2022-08-19T02:23:53;6.17;;;3.80;;
16115;SDS011;8162;47.104;15.432;2022-08-19T02:26:18;6.67;;;4.33;;
16115;SDS011;8162;47.104;15.432;2022-08-19T02:28:44;9.57;;;4.33;;
16115;SDS011;8162;47.104;15.432;2022-08-19T02:31:15;8.00;;;3.80;;
16115;SDS011;8162;47.104;15.432;2022-08-19T02:33:43;6.80;;;4.20;;
16115;SDS011;8162;47.104;15.432;2022-08-19T02:36:10;8.77;;;4.23;;
16115;SDS011;8162;47.104;15.432;2022-08-19T02:38:37;9.17;;;4.70;;
16115;SDS011;8162;47.104;15.432;2022-08-19T02:41:05;8.73;;;4.03;;
16115;SDS011;8162;47.104;15.432;2022-08-19T02:43:36;7.00;;;4.20;;
16115;SDS011;8162;47.104;15.432;2022-08-19T02:46:13;11.77;;;4.17;;
16115;SDS011;8162;47.104;15.432;2022-08-19T02:48:50;9.57;;;3.90;;
16115;SDS011;8162;47.104;15.432;2022-08-19T02:51:25;9.03;;;3.93;;
16115;SDS011;8162;47.104;15.432;2022-08-19T02:53:55;8.10;;;4.43;;
16115;SDS011;8162;47.104;15.432;2022-08-19T02:56:22;9.43;;;4.33;;
16115;SDS011;8162;47.104;15.432;2022-08-19T02:58:50;8.77;;;4.70;;
16115;SDS011;8162;47.104;15.432;2022-08-19T03:01:26;8.00;;;5.00;;
16115;SDS011;8162;47.104;15.432;2022-08-19T03:03:54;8.57;;;4.53;;
16115;SDS011;8162;47.104;15.432;2022-08-19T03:06:24;9.10;;;4.97;;
16115;SDS011;8162;47.104;15.432;2022-08-19T03:08:50;11.53;;;4.37;;
16115;SDS011;8162;47.104;15.432;2022-08-19T03:11:24;9.77;;;4.73;;
16115;SDS011;8162;47.104;15.432;2022-08-19T03:13:52;11.10;;;4.87;;
16115;SDS011;8162;47.104;15.432;2022-08-19T03:16:19;6.70;;;4.60;;
16115;SDS011;8162;47.104;15.432;2022-08-19T03:18:46;8.27;;;4.97;;
16115;SDS011;8162;47.104;15.432;2022-08-19T03:21:16;9.33;;;5.17;;
16115;SDS011;8162;47.104;15.432;2022-08-19T03:23:43;10.30;;;5.07;;
16115;SDS011;8162;47.104;15.432;2022-08-19T03:26:09;8.53;;;5.07;;
16115;SDS011;8162;47.104;15.432;2022-08-19T03:28:34;8.30;;;5.00;;
16115;SDS011;8162;47.104;15.432;2022-08-19T03:31:05;7.40;;;5.00;;
16115;SDS011;8162;47.104;15.432;2022-08-19T03:33:33;7.97;;;4.60;;
16115;SDS011;8162;47.104;15.432;2022-08-19T03:36:12;8.43;;;4.67;;
16115;SDS011;8162;47.104;15.432;2022-08-19T03:38:41;8.50;;;5.00;;
16115;SDS011;8162;47.104;15.432;2022-08-19T03:41:10;8.57;;;4.90;;
16115;SDS011;8162;47.104;15.432;2022-08-19T03:43:40;10.33;;;5.17;;
16115;SDS011;8162;47.104;15.432;2022-08-19T03:46:08;12.43;;;5.30;;
16115;SDS011;8162;47.104;15.432;2022-08-19T03:48:36;9.17;;;5.20;;
16115;SDS011;8162;47.104;15.432;2022-08-19T03:51:03;6.27;;;4.57;;
16115;SDS011;8162;47.104;15.432;2022-08-19T03:53:30;6.93;;;4.33;;
16115;SDS011;8162;47.104;15.432;2022-08-19T03:55:56;7.40;;;4.70;;
16115;SDS011;8162;47.104;15.432;2022-08-19T03:58:25;12.57;;;5.57;;
16115;SDS011;8162;47.104;15.432;2022-08-19T04:00:51;8.50;;;5.23;;
16115;SDS011;8162;47.104;15.432;2022-08-19T04:03:16;7.87;;;5.23;;
16115;SDS011;8162;47.104;15.432;2022-08-19T04:05:43;11.53;;;5.77;;
16115;SDS011;8162;47.104;15.432;2022-08-19T04:08:10;10.23;;;6.03;;
16115;SDS011;8162;47.104;15.432;2022-08-19T04:10:36;9.20;;;5.50;;
16115;SDS011;8162;47.104;15.432;2022-08-19T04:13:03;13.67;;;5.93;;
16115;SDS011;8162;47.104;15.432;2022-08-19T04:15:32;11.80;;;6.80;;
16115;SDS011;8162;47.104;15.432;2022-08-19T04:18:04;14.93;;;6.97;;
16115;SDS011;8162;47.104;15.432;2022-08-19T04:20:32;13.03;;;7.07;;
16115;SDS011;8162;47.104;15.432;2022-08-19T04:23:03;12.57;;;5.90;;
16115;SDS011;8162;47.104;15.432;2022-08-19T04:25:28;11.50;;;6.47;;
16115;SDS011;8162;47.104;15.432;2022-08-19T04:28:00;6.27;;;5.00;;
16115;SDS011;8162;47.104;15.432;2022-08-19T04:30:26;10.63;;;4.93;;
16115;SDS011;8162;47.104;15.432;2022-08-19T04:32:52;7.90;;;4.63;;
16115;SDS011;8162;47.104;15.432;2022-08-19T04:35:17;9.07;;;4.40;;
16115;SDS011;8162;47.104;15.432;2022-08-19T04:37:43;4.90;;;3.33;;
16115;SDS011;8162;47.104;15.432;2022-08-19T04:40:09;9.60;;;3.87;;
16115;SDS011;8162;47.104;15.432;2022-08-19T04:42:53;8.83;;;4.10;;
16115;SDS011;8162;47.104;15.432;2022-08-19T04:45:19;7.37;;;3.77;;
16115;SDS011;8162;47.104;15.432;2022-08-19T04:47:45;7.00;;;3.80;;
16115;SDS011;8162;47.104;15.432;2022-08-19T04:50:10;7.30;;;3.50;;
16115;SDS011;8162;47.104;15.432;2022-08-19T04:52:37;6.10;;;3.73;;
16115;SDS011;8162;47.104;15.432;2022-08-19T04:55:08;7.97;;;3.73;;
16115;SDS011;8162;47.104;15.432;2022-08-19T04:57:35;5.87;;;3.60;;
16115;SDS011;8162;47.104;15.432;2022-08-19T05:00:05;6.93;;;3.23;;
16115;SDS011;8162;47.104;15.432;2022-08-19T05:02:32;5.47;;;3.70;;
16115;SDS011;8162;47.104;15.432;2022-08-19T05:04:58;5.70;;;3.27;;
16115;SDS011;8162;47.104;15.432;2022-08-19T05:07:27;6.97;;;3.80;;
16115;SDS011;8162;47.104;15.432;2022-08-19T05:09:52;4.67;;;3.33;;
16115;SDS011;8162;47.104;15.432;2022-08-19T05:12:18;7.60;;;3.80;;
16115;SDS011;8162;47.104;15.432;2022-08-19T05:14:44;5.63;;;3.87;;
16115;SDS011;8162;47.104;15.432;2022-08-19T05:17:12;7.23;;;4.13;;
16115;SDS011;8162;47.104;15.432;2022-08-19T05:19:41;8.90;;;4.17;;
16115;SDS011;8162;47.104;15.432;2022-08-19T05:22:25;9.63;;;4.53;;
16115;SDS011;8162;47.104;15.432;2022-08-19T05:25:13;10.83;;;5.00;;
16115;SDS011;8162;47.104;15.432;2022-08-19T05:27:43;6.97;;;5.10;;
16115;SDS011;8162;47.104;15.432;2022-08-19T05:30:10;11.40;;;5.77;;
16115;SDS011;8162;47.104;15.432;2022-08-19T05:32:36;8.73;;;4.47;;
16115;SDS011;8162;47.104;15.432;2022-08-19T05:35:02;6.53;;;4.67;;
16115;SDS011;8162;47.104;15.432;2022-08-19T05:37:29;8.53;;;5.00;;
16115;SDS011;8162;47.104;15.432;2022-08-19T05:39:55;11.97;;;5.13;;
16115;SDS011;8162;47.104;15.432;2022-08-19T05:42:20;8.27;;;4.90;;
16115;SDS011;8162;47.104;15.432;2022-08-19T05:44:47;5.90;;;4.40;;
16115;SDS011;8162;47.104;15.432;2022-08-19T05:47:14;8.17;;;5.03;;
16115;SDS011;8162;47.104;15.432;2022-08-19T05:49:40;8.83;;;4.87;;
16115;SDS011;8162;47.104;15.432;2022-08-19T05:52:07;10.77;;;5.30;;
16115;SDS011;8162;47.104;15.432;2022-08-19T05:54:36;10.93;;;5.23;;
16115;SDS011;8162;47.104;15.432;2022-08-19T05:57:05;9.47;;;5.77;;
16115;SDS011;8162;47.104;15.432;2022-08-19T05:59:31;8.83;;;5.40;;
16115;SDS011;8162;47.104;15.432;2022-08-19T06:01:57;10.67;;;5.67;;
16115;SDS011;8162;47.104;15.432;2022-08-19T06:04:24;14.00;;;5.77;;
16115;SDS011;8162;47.104;15.432;2022-08-19T06:06:51;6.47;;;4.73;;
16115;SDS011;8162;47.104;15.432;2022-08-19T06:09:18;7.57;;;4.30;;
16115;SDS011;8162;47.104;15.432;2022-08-19T06:14:19;13.13;;;4.67;;
16115;SDS011;8162;47.104;15.432;2022-08-19T06:16:47;7.27;;;4.43;;
16115;SDS011;8162;47.104;15.432;2022-08-19T06:19:14;7.90;;;4.53;;
16115;SDS011;8162;47.104;15.432;2022-08-19T06:21:42;7.33;;;5.03;;
16115;SDS011;8162;47.104;15.432;2022-08-19T06:24:11;8.40;;;4.23;;
16115;SDS011;8162;47.104;15.432;2022-08-19T06:26:40;7.70;;;4.33;;
16115;SDS011;8162;47.104;15.432;2022-08-19T06:29:09;9.57;;;5.40;;
16115;SDS011;8162;47.104;15.432;2022-08-19T06:31:37;11.20;;;4.73;;
16115;SDS011;8162;47.104;15.432;2022-08-19T06:34:06;6.63;;;4.73;;
16115;SDS011;8162;47.104;15.432;2022-08-19T06:36:33;7.73;;;4.80;;
16115;SDS011;8162;47.104;15.432;2022-08-19T06:39:16;5.60;;;4.30;;
16115;SDS011;8162;47.104;15.432;2022-08-19T06:41:45;9.03;;;4.63;;
16115;SDS011;8162;47.104;15.432;2022-08-19T06:44:12;7.33;;;4.53;;
16115;SDS011;8162;47.104;15.432;2022-08-19T06:46:39;6.87;;;4.07;;
16115;SDS011;8162;47.104;15.432;2022-08-19T06:49:05;6.10;;;3.93;;
16115;SDS011;8162;47.104;15.432;2022-08-19T06:51:33;5.73;;;3.87;;
16115;SDS011;8162;47.104;15.432;2022-08-19T06:53:59;6.50;;;3.73;;
16115;SDS011;8162;47.104;15.432;2022-08-19T06:56:26;7.67;;;4.13;;
16115;SDS011;8162;47.104;15.432;2022-08-19T06:58:57;7.17;;;3.77;;
16115;SDS011;8162;47.104;15.432;2022-08-19T07:01:23;6.90;;;3.40;;
16115;SDS011;8162;47.104;15.432;2022-08-19T07:03:49;6.70;;;4.07;;
16115;SDS011;8162;47.104;15.432;2022-08-19T07:06:15;6.07;;;3.23;;
16115;SDS011;8162;47.104;15.432;2022-08-19T07:08:43;6.10;;;3.60;;
16115;SDS011;8162;47.104;15.432;2022-08-19T07:11:10;7.73;;;3.90;;
16115;SDS011;8162;47.104;15.432;2022-08-19T07:13:38;5.70;;;3.77;;
16115;SDS011;8162;47.104;15.432;2022-08-19T07:16:08;5.33;;;3.30;;
16115;SDS011;8162;47.104;15.432;2022-08-19T07:18:37;5.50;;;3.50;;
16115;SDS011;8162;47.104;15.432;2022-08-19T07:23:32;8.33;;;3.97;;
16115;SDS011;8162;47.104;15.432;2022-08-19T07:25:58;6.87;;;3.20;;
16115;SDS011;8162;47.104;15.432;2022-08-19T07:28:39;6.27;;;4.10;;
16115;SDS011;8162;47.104;15.432;2022-08-19T07:31:06;4.80;;;3.07;;
16115;SDS011;8162;47.104;15.432;2022-08-19T07:33:32;7.17;;;3.50;;
16115;SDS011;8162;47.104;15.432;2022-08-19T07:36:02;5.97;;;3.70;;
16115;SDS011;8162;47.104;15.432;2022-08-19T07:38:30;7.07;;;3.70;;
16115;SDS011;8162;47.104;15.432;2022-08-19T07:40:56;7.23;;;3.37;;
16115;SDS011;8162;47.104;15.432;2022-08-19T07:43:22;5.07;;;3.20;;
16115;SDS011;8162;47.104;15.432;2022-08-19T07:45:50;4.13;;;2.97;;
16115;SDS011;8162;47.104;15.432;2022-08-19T07:48:18;5.13;;;3.17;;
16115;SDS011;8162;47.104;15.432;2022-08-19T07:50:43;6.60;;;3.07;;
16115;SDS011;8162;47.104;15.432;2022-08-19T07:53:09;7.90;;;4.67;;
16115;SDS011;8162;47.104;15.432;2022-08-19T07:55:36;5.03;;;3.30;;
16115;SDS011;8162;47.104;15.432;2022-08-19T07:58:02;4.93;;;3.73;;
16115;SDS011;8162;47.104;15.432;2022-08-19T08:00:29;10.07;;;3.73;;
16115;SDS011;8162;47.104;15.432;2022-08-19T08:02:55;7.83;;;3.97;;
16115;SDS011;8162;47.104;15.432;2022-08-19T08:05:21;6.70;;;4.23;;
16115;SDS011;8162;47.104;15.432;2022-08-19T08:08:06;6.87;;;4.00;;
16115;SDS011;8162;47.104;15.432;2022-08-19T08:11:08;9.40;;;4.20;;
16115;SDS011;8162;47.104;15.432;2022-08-19T08:13:34;6.70;;;4.03;;
16115;SDS011;8162;47.104;15.432;2022-08-19T08:16:00;6.67;;;3.90;;
16115;SDS011;8162;47.104;15.432;2022-08-19T08:18:26;8.33;;;4.33;;
16115;SDS011;8162;47.104;15.432;2022-08-19T08:20:53;7.90;;;3.60;;
16115;SDS011;8162;47.104;15.432;2022-08-19T08:23:19;6.93;;;4.90;;
16115;SDS011;8162;47.104;15.432;2022-08-19T08:25:49;9.00;;;4.10;;
16115;SDS011;8162;47.104;15.432;2022-08-19T08:28:17;7.33;;;4.10;;
16115;SDS011;8162;47.104;15.432;2022-08-19T08:30:43;8.77;;;4.43;;
16115;SDS011;8162;47.104;15.432;2022-08-19T08:33:12;8.57;;;4.33;;
16115;SDS011;8162;47.104;15.432;2022-08-19T08:35:39;8.33;;;4.73;;
16115;SDS011;8162;47.104;15.432;2022-08-19T08:38:08;9.23;;;4.00;;
16115;SDS011;8162;47.104;15.432;2022-08-19T08:40:38;9.10;;;4.17;;
16115;SDS011;8162;47.104;15.432;2022-08-19T08:43:11;9.00;;;4.10;;
16115;SDS011;8162;47.104;15.432;2022-08-19T08:45:53;8.57;;;4.57;;
16115;SDS011;8162;47.104;15.432;2022-08-19T08:48:36;9.40;;;4.60;;
16115;SDS011;8162;47.104;15.432;2022-08-19T08:51:15;8.40;;;5.13;;
16115;SDS011;8162;47.104;15.432;2022-08-19T08:53:47;8.57;;;4.40;;
16115;SDS011;8162;47.104;15.432;2022-08-19T08:56:15;7.03;;;4.87;;
16115;SDS011;8162;47.104;15.432;2022-08-19T09:01:12;7.53;;;4.73;;
16115;SDS011;8162;47.104;15.432;2022-08-19T09:03:39;5.80;;;4.90;;
16115;SDS011;8162;47.104;15.432;2022-08-19T09:06:09;12.27;;;4.40;;
16115;SDS011;8162;47.104;15.432;2022-08-19T09:14:48;8.23;;;5.00;;
16115;SDS011;8162;47.104;15.432;2022-08-19T09:17:23;8.77;;;5.37;;
16115;SDS011;8162;47.104;15.432;2022-08-19T09:19:57;7.87;;;5.03;;
16115;SDS011;8162;47.104;15.432;2022-08-19T09:22:33;11.67;;;5.73;;
16115;SDS011;8162;47.104;15.432;2022-08-19T09:25:00;9.17;;;4.77;;
16115;SDS011;8162;47.104;15.432;2022-08-19T09:27:27;6.27;;;4.77;;
16115;SDS011;8162;47.104;15.432;2022-08-19T09:29:53;6.40;;;4.50;;
16115;SDS011;8162;47.104;15.432;2022-08-19T09:32:21;9.40;;;5.43;;
16115;SDS011;8162;47.104;15.432;2022-08-19T09:34:47;7.47;;;5.13;;
16115;SDS011;8162;47.104;15.432;2022-08-19T09:37:13;8.53;;;5.47;;
16115;SDS011;8162;47.104;15.432;2022-08-19T09:39:39;8.97;;;5.27;;
16115;SDS011;8162;47.104;15.432;2022-08-19T09:42:07;9.23;;;5.37;;
16115;SDS011;8162;47.104;15.432;2022-08-19T09:44:39;12.63;;;5.80;;
16115;SDS011;8162;47.104;15.432;2022-08-19T09:47:05;9.10;;;5.97;;
16115;SDS011;8162;47.104;15.432;2022-08-19T09:49:31;4.77;;;4.33;;
16115;SDS011;8162;47.104;15.432;2022-08-19T09:51:57;9.27;;;5.00;;
16115;SDS011;8162;47.104;15.432;2022-08-19T09:54:23;5.13;;;4.63;;
16115;SDS011;8162;47.104;15.432;2022-08-19T09:56:49;6.60;;;5.50;;
16115;SDS011;8162;47.104;15.432;2022-08-19T09:59:15;8.13;;;5.30;;
16115;SDS011;8162;47.104;15.432;2022-08-19T10:01:41;9.40;;;5.43;;
16115;SDS011;8162;47.104;15.432;2022-08-19T10:04:07;9.33;;;6.20;;
16115;SDS011;8162;47.104;15.432;2022-08-19T10:06:36;8.50;;;6.17;;
16115;SDS011;8162;47.104;15.432;2022-08-19T10:09:05;9.53;;;5.40;;
16115;SDS011;8162;47.104;15.432;2022-08-19T10:11:33;5.23;;;4.73;;
16115;SDS011;8162;47.104;15.432;2022-08-19T10:14:00;8.33;;;4.63;;
16115;SDS011;8162;47.104;15.432;2022-08-19T10:16:26;6.00;;;4.73;;
16115;SDS011;8162;47.104;15.432;2022-08-19T10:18:52;6.00;;;4.87;;
16115;SDS011;8162;47.104;15.432;2022-08-19T10:21:20;8.13;;;4.90;;
16115;SDS011;8162;47.104;15.432;2022-08-19T10:23:50;7.07;;;4.87;;
16115;SDS011;8162;47.104;15.432;2022-08-19T10:26:22;10.20;;;6.27;;
16115;SDS011;8162;47.104;15.432;2022-08-19T10:28:50;5.93;;;5.17;;
16115;SDS011;8162;47.104;15.432;2022-08-19T10:31:17;9.23;;;5.60;;
16115;SDS011;8162;47.104;15.432;2022-08-19T10:33:45;10.13;;;5.50;;
16115;SDS011;8162;47.104;15.432;2022-08-19T10:36:14;7.33;;;5.03;;
16115;SDS011;8162;47.104;15.432;2022-08-19T10:38:42;8.07;;;5.43;;
16115;SDS011;8162;47.104;15.432;2022-08-19T10:41:16;7.13;;;4.93;;
16115;SDS011;8162;47.104;15.432;2022-08-19T10:43:50;6.53;;;5.10;;
16115;SDS011;8162;47.104;15.432;2022-08-19T10:46:19;9.37;;;5.50;;
16115;SDS011;8162;47.104;15.432;2022-08-19T10:48:47;9.70;;;6.17;;
16115;SDS011;8162;47.104;15.432;2022-08-19T10:51:13;7.27;;;6.07;;
16115;SDS011;8162;47.104;15.432;2022-08-19T10:53:58;6.50;;;5.90;;
16115;SDS011;8162;47.104;15.432;2022-08-19T10:56:24;12.03;;;5.87;;
16115;SDS011;8162;47.104;15.432;2022-08-19T10:59:10;6.40;;;5.00;;
16115;SDS011;8162;47.104;15.432;2022-08-19T11:01:39;9.53;;;5.73;;
16115;SDS011;8162;47.104;15.432;2022-08-19T11:04:05;6.77;;;5.97;;
16115;SDS011;8162;47.104;15.432;2022-08-19T11:06:35;8.87;;;5.50;;
16115;SDS011;8162;47.104;15.432;2022-08-19T11:09:01;7.67;;;6.10;;
16115;SDS011;8162;47.104;15.432;2022-08-19T11:11:28;8.20;;;6.57;;
16115;SDS011;8162;47.104;15.432;2022-08-19T11:13:53;9.00;;;6.20;;
16115;SDS011;8162;47.104;15.432;2022-08-19T11:16:20;12.23;;;9.00;;
16115;SDS011;8162;47.104;15.432;2022-08-19T11:18:51;8.63;;;7.00;;
16115;SDS011;8162;47.104;15.432;2022-08-19T11:21:19;6.90;;;5.20;;
16115;SDS011;8162;47.104;15.432;2022-08-19T11:23:50;5.93;;;4.60;;
16115;SDS011;8162;47.104;15.432;2022-08-19T11:26:18;7.80;;;4.97;;
16115;SDS011;8162;47.104;15.432;2022-08-19T11:28:44;6.10;;;4.00;;
16115;SDS011;8162;47.104;15.432;2022-08-19T11:31:11;6.63;;;3.90;;
16115;SDS011;8162;47.104;15.432;2022-08-19T11:33:41;10.00;;;4.87;;
16115;SDS011;8162;47.104;15.432;2022-08-19T11:36:08;5.70;;;4.40;;
16115;SDS011;8162;47.104;15.432;2022-08-19T11:38:34;4.97;;;3.90;;
16115;SDS011;8162;47.104;15.432;2022-08-19T11:41:06;4.43;;;3.63;;
16115;SDS011;8162;47.104;15.432;2022-08-19T11:43:33;7.70;;;3.70;;
16115;SDS011;8162;47.104;15.432;2022-08-19T11:45:59;4.67;;;3.47;;
16115;SDS011;8162;47.104;15.432;2022-08-19T11:48:40;5.17;;;3.80;;
16115;SDS011;8162;47.104;15.432;2022-08-19T11:51:07;4.83;;;4.00;;
16115;SDS011;8162;47.104;15.432;2022-08-19T11:53:35;4.77;;;3.77;;
16115;SDS011;8162;47.104;15.432;2022-08-19T11:56:03;7.57;;;3.60;;
16115;SDS011;8162;47.104;15.432;2022-08-19T11:58:30;6.07;;;3.83;;
16115;SDS011;8162;47.104;15.432;2022-08-19T12:00:56;6.33;;;3.57;;
16115;SDS011;8162;47.104;15.432;2022-08-19T12:03:22;7.10;;;3.80;;
16115;SDS011;8162;47.104;15.432;2022-08-19T12:05:48;6.23;;;3.80;;
16115;SDS011;8162;47.104;15.432;2022-08-19T12:08:14;4.33;;;3.20;;
16115;SDS011;8162;47.104;15.432;2022-08-19T12:10:41;5.83;;;3.37;;
16115;SDS011;8162;47.104;15.432;2022-08-19T12:13:07;5.70;;;3.93;;
16115;SDS011;8162;47.104;15.432;2022-08-19T12:15:35;6.53;;;3.63;;
16115;SDS011;8162;47.104;15.432;2022-08-19T12:18:08;6.07;;;3.93;;
16115;SDS011;8162;47.104;15.432;2022-08-19T12:20:35;6.97;;;3.77;;
16115;SDS011;8162;47.104;15.432;2022-08-19T12:23:03;8.00;;;3.47;;
16115;SDS011;8162;47.104;15.432;2022-08-19T12:25:30;7.37;;;3.90;;
16115;SDS011;8162;47.104;15.432;2022-08-19T12:27:56;7.40;;;4.23;;
16115;SDS011;8162;47.104;15.432;2022-08-19T12:30:22;7.33;;;4.00;;
16115;SDS011;8162;47.104;15.432;2022-08-19T12:32:48;9.37;;;3.33;;
16115;SDS011;8162;47.104;15.432;2022-08-19T12:35:16;8.90;;;3.33;;
16115;SDS011;8162;47.104;15.432;2022-08-19T12:37:42;6.20;;;3.17;;
16115;SDS011;8162;47.104;15.432;2022-08-19T12:40:09;7.63;;;3.03;;
16115;SDS011;8162;47.104;15.432;2022-08-19T12:42:37;4.53;;;2.73;;
16115;SDS011;8162;47.104;15.432;2022-08-19T12:45:07;7.67;;;3.33;;
16115;SDS011;8162;47.104;15.432;2022-08-19T12:47:34;9.23;;;3.63;;
16115;SDS011;8162;47.104;15.432;2022-08-19T12:50:00;6.73;;;3.40;;
16115;SDS011;8162;47.104;15.432;2022-08-19T12:52:26;6.80;;;2.87;;
16115;SDS011;8162;47.104;15.432;2022-08-19T12:54:53;7.90;;;3.50;;
16115;SDS011;8162;47.104;15.432;2022-08-19T12:57:19;6.70;;;2.27;;
16115;SDS011;8162;47.104;15.432;2022-08-19T12:59:45;4.30;;;2.50;;
16115;SDS011;8162;47.104;15.432;2022-08-19T13:02:11;6.67;;;2.23;;
16115;SDS011;8162;47.104;15.432;2022-08-19T13:04:36;4.97;;;2.10;;
16115;SDS011;8162;47.104;15.432;2022-08-19T13:07:05;8.67;;;2.30;;
16115;SDS011;8162;47.104;15.432;2022-08-19T13:09:32;8.00;;;2.87;;
16115;SDS011;8162;47.104;15.432;2022-08-19T13:11:58;5.03;;;2.40;;
16115;SDS011;8162;47.104;15.432;2022-08-19T13:14:27;5.73;;;2.60;;
16115;SDS011;8162;47.104;15.432;2022-08-19T13:16:53;5.83;;;2.30;;
16115;SDS011;8162;47.104;15.432;2022-08-19T13:19:19;4.27;;;2.50;;
16115;SDS011;8162;47.104;15.432;2022-08-19T13:21:49;9.23;;;3.00;;
16115;SDS011;8162;47.104;15.432;2022-08-19T13:24:15;7.33;;;2.37;;
16115;SDS011;8162;47.104;15.432;2022-08-19T13:26:41;8.33;;;2.80;;
16115;SDS011;8162;47.104;15.432;2022-08-19T13:29:06;4.70;;;2.27;;
16115;SDS011;8162;47.104;15.432;2022-08-19T13:32:04;4.27;;;2.27;;
16115;SDS011;8162;47.104;15.432;2022-08-19T13:34:48;5.50;;;2.83;;
16115;SDS011;8162;47.104;15.432;2022-08-19T13:37:14;6.67;;;3.07;;
16115;SDS011;8162;47.104;15.432;2022-08-19T13:39:40;5.43;;;2.47;;
16115;SDS011;8162;47.104;15.432;2022-08-19T13:42:05;8.63;;;2.43;;
16115;SDS011;8162;47.104;15.432;2022-08-19T13:44:32;5.97;;;2.57;;
16115;SDS011;8162;47.104;15.432;2022-08-19T13:47:05;4.43;;;2.63;;
16115;SDS011;8162;47.104;15.432;2022-08-19T13:49:33;6.00;;;2.43;;
16115;SDS011;8162;47.104;15.432;2022-08-19T13:52:01;9.43;;;2.53;;
16115;SDS011;8162;47.104;15.432;2022-08-19T13:54:27;6.30;;;2.50;;
16115;SDS011;8162;47.104;15.432;2022-08-19T13:56:53;8.07;;;3.23;;
16115;SDS011;8162;47.104;15.432;2022-08-19T13:59:19;3.47;;;2.73;;
16115;SDS011;8162;47.104;15.432;2022-08-19T14:01:44;7.47;;;3.13;;
16115;SDS011;8162;47.104;15.432;2022-08-19T14:04:10;5.10;;;3.00;;
16115;SDS011;8162;47.104;15.432;2022-08-19T14:06:35;7.40;;;2.97;;
16115;SDS011;8162;47.104;15.432;2022-08-19T14:09:01;6.27;;;2.80;;
16115;SDS011;8162;47.104;15.432;2022-08-19T14:11:28;6.70;;;2.97;;
16115;SDS011;8162;47.104;15.432;2022-08-19T14:13:54;7.60;;;2.30;;
16115;SDS011;8162;47.104;15.432;2022-08-19T14:16:20;10.23;;;3.23;;
16115;SDS011;8162;47.104;15.432;2022-08-19T14:18:46;6.23;;;2.77;;
16115;SDS011;8162;47.104;15.432;2022-08-19T14:21:17;8.33;;;2.63;;
16115;SDS011;8162;47.104;15.432;2022-08-19T14:23:45;9.00;;;2.83;;
16115;SDS011;8162;47.104;15.432;2022-08-19T14:26:13;8.03;;;2.63;;
16115;SDS011;8162;47.104;15.432;2022-08-19T14:28:40;6.53;;;2.80;;
16115;SDS011;8162;47.104;15.432;2022-08-19T14:31:08;10.07;;;3.30;;
16115;SDS011;8162;47.104;15.432;2022-08-19T14:33:34;6.67;;;2.53;;
16115;SDS011;8162;47.104;15.432;2022-08-19T14:36:00;7.20;;;2.63;;
16115;SDS011;8162;47.104;15.432;2022-08-19T14:38:26;7.10;;;2.43;;
16115;SDS011;8162;47.104;15.432;2022-08-19T14:40:52;9.13;;;3.07;;
16115;SDS011;8162;47.104;15.432;2022-08-19T14:43:18;6.93;;;2.90;;
16115;SDS011;8162;47.104;15.432;2022-08-19T14:45:43;7.87;;;2.80;;
16115;SDS011;8162;47.104;15.432;2022-08-19T14:48:09;8.80;;;2.93;;
16115;SDS011;8162;47.104;15.432;2022-08-19T14:50:35;8.60;;;2.87;;
16115;SDS011;8162;47.104;15.432;2022-08-19T14:53:04;7.07;;;2.77;;
16115;SDS011;8162;47.104;15.432;2022-08-19T14:55:32;7.40;;;2.53;;
16115;SDS011;8162;47.104;15.432;2022-08-19T14:57:58;9.53;;;3.23;;
16115;SDS011;8162;47.104;15.432;2022-08-19T15:00:25;9.17;;;2.90;;
16115;SDS011;8162;47.104;15.432;2022-08-19T15:02:51;6.40;;;2.73;;
16115;SDS011;8162;47.104;15.432;2022-08-19T15:05:19;7.17;;;3.10;;